sensor_id;sensor_type;location;lat;lon;timestamp;P1;durP1;ratioP1;P2;durP2;ratioP2
61903;SDS011;47857;52.270;6.804;2022-07-03T00:01:03;4.40;;;3.03;;
61903;SDS011;47857;52.270;6.804;2022-07-03T00:03:29;5.43;;;3.03;;
61903;SDS011;47857;52.270;6.804;2022-07-03T00:05:54;3.20;;;2.50;;
61903;SDS011;47857;52.270;6.804;2022-07-03T00:08:20;6.20;;;2.97;;
61903;SDS011;47857;52.270;6.804;2022-07-03T00:10:46;5.93;;;2.90;;
61903;SDS011;47857;52.270;6.804;2022-07-03T00:13:12;4.22;;;2.63;;
61903;SDS011;47857;52.270;6.804;2022-07-03T00:15:37;7.22;;;2.67;;
61903;SDS011;47857;52.270;6.804;2022-07-03T00:18:03;6.40;;;2.58;;
61903;SDS011;47857;52.270;6.804;2022-07-03T00:20:29;5.70;;;2.70;;
61903;SDS011;47857;52.270;6.804;2022-07-03T00:22:55;6.03;;;2.20;;
61903;SDS011;47857;52.270;6.804;2022-07-03T00:25:22;4.43;;;2.10;;
61903;SDS011;47857;52.270;6.804;2022-07-03T00:27:48;5.30;;;2.13;;
61903;SDS011;47857;52.270;6.804;2022-07-03T00:30:14;3.80;;;2.20;;
61903;SDS011;47857;52.270;6.804;2022-07-03T00:32:41;4.15;;;2.58;;
61903;SDS011;47857;52.270;6.804;2022-07-03T00:35:07;3.30;;;1.95;;
61903;SDS011;47857;52.270;6.804;2022-07-03T00:37:33;7.05;;;2.25;;
61903;SDS011;47857;52.270;6.804;2022-07-03T00:39:59;4.18;;;2.28;;
61903;SDS011;47857;52.270;6.804;2022-07-03T00:42:25;5.20;;;2.50;;
61903;SDS011;47857;52.270;6.804;2022-07-03T00:44:53;4.13;;;2.20;;
61903;SDS011;47857;52.270;6.804;2022-07-03T00:47:21;6.38;;;2.28;;
61903;SDS011;47857;52.270;6.804;2022-07-03T00:49:49;6.25;;;2.45;;
61903;SDS011;47857;52.270;6.804;2022-07-03T00:52:20;6.13;;;2.75;;
61903;SDS011;47857;52.270;6.804;2022-07-03T00:54:56;3.53;;;2.40;;
61903;SDS011;47857;52.270;6.804;2022-07-03T00:57:26;5.90;;;2.70;;
61903;SDS011;47857;52.270;6.804;2022-07-03T00:59:54;6.43;;;2.63;;
61903;SDS011;47857;52.270;6.804;2022-07-03T01:05:27;7.07;;;2.42;;
61903;SDS011;47857;52.270;6.804;2022-07-03T01:13:52;5.35;;;2.70;;
61903;SDS011;47857;52.270;6.804;2022-07-03T01:16:41;4.68;;;2.70;;
61903;SDS011;47857;52.270;6.804;2022-07-03T01:24:42;5.63;;;2.80;;
61903;SDS011;47857;52.270;6.804;2022-07-03T01:27:16;4.10;;;2.60;;
61903;SDS011;47857;52.270;6.804;2022-07-03T01:29:51;5.55;;;2.60;;
61903;SDS011;47857;52.270;6.804;2022-07-03T01:32:23;8.63;;;2.80;;
61903;SDS011;47857;52.270;6.804;2022-07-03T01:34:51;6.97;;;2.60;;
61903;SDS011;47857;52.270;6.804;2022-07-03T01:37:17;5.53;;;2.45;;
61903;SDS011;47857;52.270;6.804;2022-07-03T01:39:47;4.15;;;2.63;;
61903;SDS011;47857;52.270;6.804;2022-07-03T01:42:14;3.78;;;2.25;;
61903;SDS011;47857;52.270;6.804;2022-07-03T01:44:40;4.78;;;2.78;;
61903;SDS011;47857;52.270;6.804;2022-07-03T01:47:06;7.30;;;2.70;;
61903;SDS011;47857;52.270;6.804;2022-07-03T01:49:31;4.97;;;2.38;;
61903;SDS011;47857;52.270;6.804;2022-07-03T01:51:58;6.18;;;2.20;;
61903;SDS011;47857;52.270;6.804;2022-07-03T01:54:24;6.80;;;2.45;;
61903;SDS011;47857;52.270;6.804;2022-07-03T01:56:51;5.07;;;2.17;;
61903;SDS011;47857;52.270;6.804;2022-07-03T01:59:16;3.67;;;2.20;;
61903;SDS011;47857;52.270;6.804;2022-07-03T02:01:51;5.10;;;2.45;;
61903;SDS011;47857;52.270;6.804;2022-07-03T02:04:32;4.53;;;2.85;;
61903;SDS011;47857;52.270;6.804;2022-07-03T02:14:48;5.88;;;2.30;;
61903;SDS011;47857;52.270;6.804;2022-07-03T02:17:22;4.57;;;2.10;;
61903;SDS011;47857;52.270;6.804;2022-07-03T02:19:59;4.60;;;2.30;;
61903;SDS011;47857;52.270;6.804;2022-07-03T02:22:33;5.78;;;2.42;;
61903;SDS011;47857;52.270;6.804;2022-07-03T02:28:04;5.32;;;2.65;;
61903;SDS011;47857;52.270;6.804;2022-07-03T02:30:23;4.85;;;2.22;;
61903;SDS011;47857;52.270;6.804;2022-07-03T02:32:50;5.28;;;2.28;;
61903;SDS011;47857;52.270;6.804;2022-07-03T02:35:18;6.55;;;2.30;;
61903;SDS011;47857;52.270;6.804;2022-07-03T02:37:48;4.60;;;2.13;;
61903;SDS011;47857;52.270;6.804;2022-07-03T02:43:28;3.97;;;2.20;;
61903;SDS011;47857;52.270;6.804;2022-07-03T02:51:57;6.40;;;2.60;;
61903;SDS011;47857;52.270;6.804;2022-07-03T02:54:26;5.10;;;2.20;;
61903;SDS011;47857;52.270;6.804;2022-07-03T02:59:43;5.18;;;2.03;;
61903;SDS011;47857;52.270;6.804;2022-07-03T03:02:25;5.50;;;1.95;;
61903;SDS011;47857;52.270;6.804;2022-07-03T03:07:35;4.80;;;2.25;;
61903;SDS011;47857;52.270;6.804;2022-07-03T03:10:06;5.60;;;2.38;;
61903;SDS011;47857;52.270;6.804;2022-07-03T03:12:35;4.70;;;2.30;;
61903;SDS011;47857;52.270;6.804;2022-07-03T03:15:05;7.35;;;2.30;;
61903;SDS011;47857;52.270;6.804;2022-07-03T03:17:43;9.82;;;2.30;;
61903;SDS011;47857;52.270;6.804;2022-07-03T03:20:15;2.90;;;1.92;;
61903;SDS011;47857;52.270;6.804;2022-07-03T03:25:47;6.10;;;2.25;;
61903;SDS011;47857;52.270;6.804;2022-07-03T03:28:13;4.35;;;2.28;;
61903;SDS011;47857;52.270;6.804;2022-07-03T03:30:39;6.03;;;2.60;;
61903;SDS011;47857;52.270;6.804;2022-07-03T03:33:05;4.30;;;2.40;;
61903;SDS011;47857;52.270;6.804;2022-07-03T03:35:37;5.40;;;2.50;;
61903;SDS011;47857;52.270;6.804;2022-07-03T03:38:03;4.45;;;2.20;;
61903;SDS011;47857;52.270;6.804;2022-07-03T03:40:30;6.28;;;2.20;;
61903;SDS011;47857;52.270;6.804;2022-07-03T03:42:56;3.63;;;2.30;;
61903;SDS011;47857;52.270;6.804;2022-07-03T03:45:22;4.88;;;2.50;;
61903;SDS011;47857;52.270;6.804;2022-07-03T03:47:47;5.28;;;2.60;;
61903;SDS011;47857;52.270;6.804;2022-07-03T03:50:13;5.05;;;3.30;;
61903;SDS011;47857;52.270;6.804;2022-07-03T03:52:38;7.50;;;3.58;;
61903;SDS011;47857;52.270;6.804;2022-07-03T03:55:04;6.20;;;3.47;;
61903;SDS011;47857;52.270;6.804;2022-07-03T03:57:30;7.35;;;3.88;;
61903;SDS011;47857;52.270;6.804;2022-07-03T03:59:56;8.38;;;3.90;;
61903;SDS011;47857;52.270;6.804;2022-07-03T04:02:22;6.03;;;3.80;;
61903;SDS011;47857;52.270;6.804;2022-07-03T04:04:47;5.68;;;4.03;;
61903;SDS011;47857;52.270;6.804;2022-07-03T04:07:13;6.20;;;4.10;;
61903;SDS011;47857;52.270;6.804;2022-07-03T04:09:38;6.10;;;4.20;;
61903;SDS011;47857;52.270;6.804;2022-07-03T04:12:04;5.32;;;3.70;;
61903;SDS011;47857;52.270;6.804;2022-07-03T04:14:30;6.55;;;4.10;;
61903;SDS011;47857;52.270;6.804;2022-07-03T04:16:55;9.45;;;4.10;;
61903;SDS011;47857;52.270;6.804;2022-07-03T04:19:21;5.53;;;3.60;;
61903;SDS011;47857;52.270;6.804;2022-07-03T04:21:47;5.25;;;3.45;;
61903;SDS011;47857;52.270;6.804;2022-07-03T04:24:14;6.43;;;3.20;;
61903;SDS011;47857;52.270;6.804;2022-07-03T04:26:40;5.45;;;3.40;;
61903;SDS011;47857;52.270;6.804;2022-07-03T04:29:05;7.05;;;3.80;;
61903;SDS011;47857;52.270;6.804;2022-07-03T04:31:31;5.18;;;3.35;;
61903;SDS011;47857;52.270;6.804;2022-07-03T04:33:56;7.22;;;4.03;;
61903;SDS011;47857;52.270;6.804;2022-07-03T04:36:22;7.25;;;3.47;;
61903;SDS011;47857;52.270;6.804;2022-07-03T04:38:47;6.45;;;3.42;;
61903;SDS011;47857;52.270;6.804;2022-07-03T04:41:13;7.05;;;3.78;;
61903;SDS011;47857;52.270;6.804;2022-07-03T04:43:38;4.57;;;3.40;;
61903;SDS011;47857;52.270;6.804;2022-07-03T04:46:04;6.40;;;3.72;;
61903;SDS011;47857;52.270;6.804;2022-07-03T04:48:29;3.67;;;3.22;;
61903;SDS011;47857;52.270;6.804;2022-07-03T04:50:55;6.05;;;3.03;;
61903;SDS011;47857;52.270;6.804;2022-07-03T04:53:21;6.35;;;3.28;;
61903;SDS011;47857;52.270;6.804;2022-07-03T04:55:49;6.80;;;3.33;;
61903;SDS011;47857;52.270;6.804;2022-07-03T04:58:15;7.38;;;3.35;;
61903;SDS011;47857;52.270;6.804;2022-07-03T05:00:41;7.78;;;3.20;;
61903;SDS011;47857;52.270;6.804;2022-07-03T05:03:08;6.03;;;3.00;;
61903;SDS011;47857;52.270;6.804;2022-07-03T05:05:33;5.88;;;3.22;;
61903;SDS011;47857;52.270;6.804;2022-07-03T05:07:59;5.43;;;2.78;;
61903;SDS011;47857;52.270;6.804;2022-07-03T05:10:25;4.80;;;2.75;;
61903;SDS011;47857;52.270;6.804;2022-07-03T05:12:52;5.35;;;2.97;;
61903;SDS011;47857;52.270;6.804;2022-07-03T05:15:18;5.43;;;2.50;;
61903;SDS011;47857;52.270;6.804;2022-07-03T05:17:43;7.50;;;2.88;;
61903;SDS011;47857;52.270;6.804;2022-07-03T05:20:09;5.80;;;2.90;;
61903;SDS011;47857;52.270;6.804;2022-07-03T05:23:00;4.57;;;2.78;;
61903;SDS011;47857;52.270;6.804;2022-07-03T05:25:27;7.57;;;2.80;;
61903;SDS011;47857;52.270;6.804;2022-07-03T05:27:53;7.40;;;2.83;;
61903;SDS011;47857;52.270;6.804;2022-07-03T05:30:23;8.20;;;2.80;;
61903;SDS011;47857;52.270;6.804;2022-07-03T05:32:49;4.38;;;2.72;;
61903;SDS011;47857;52.270;6.804;2022-07-03T05:35:15;5.88;;;2.15;;
61903;SDS011;47857;52.270;6.804;2022-07-03T05:37:41;5.25;;;3.33;;
61903;SDS011;47857;52.270;6.804;2022-07-03T05:40:07;5.80;;;2.50;;
61903;SDS011;47857;52.270;6.804;2022-07-03T05:42:33;9.18;;;2.80;;
61903;SDS011;47857;52.270;6.804;2022-07-03T05:44:58;7.65;;;2.85;;
61903;SDS011;47857;52.270;6.804;2022-07-03T05:47:24;9.45;;;4.60;;
61903;SDS011;47857;52.270;6.804;2022-07-03T05:49:49;5.35;;;2.90;;
61903;SDS011;47857;52.270;6.804;2022-07-03T05:52:15;8.98;;;3.60;;
61903;SDS011;47857;52.270;6.804;2022-07-03T05:54:41;5.88;;;3.10;;
61903;SDS011;47857;52.270;6.804;2022-07-03T05:57:07;7.32;;;3.25;;
61903;SDS011;47857;52.270;6.804;2022-07-03T05:59:32;7.22;;;2.70;;
61903;SDS011;47857;52.270;6.804;2022-07-03T06:01:58;6.30;;;3.20;;
61903;SDS011;47857;52.270;6.804;2022-07-03T06:04:23;5.22;;;2.80;;
61903;SDS011;47857;52.270;6.804;2022-07-03T06:06:49;4.05;;;2.97;;
61903;SDS011;47857;52.270;6.804;2022-07-03T06:09:15;5.90;;;3.20;;
61903;SDS011;47857;52.270;6.804;2022-07-03T06:11:40;5.07;;;2.60;;
61903;SDS011;47857;52.270;6.804;2022-07-03T06:14:05;8.50;;;2.90;;
61903;SDS011;47857;52.270;6.804;2022-07-03T06:16:31;5.57;;;2.45;;
61903;SDS011;47857;52.270;6.804;2022-07-03T06:18:57;6.10;;;2.20;;
61903;SDS011;47857;52.270;6.804;2022-07-03T06:21:23;6.38;;;2.33;;
61903;SDS011;47857;52.270;6.804;2022-07-03T06:23:48;6.82;;;2.13;;
61903;SDS011;47857;52.270;6.804;2022-07-03T06:26:14;3.58;;;1.90;;
61903;SDS011;47857;52.270;6.804;2022-07-03T06:28:40;3.63;;;2.17;;
61903;SDS011;47857;52.270;6.804;2022-07-03T06:31:05;2.95;;;1.60;;
61903;SDS011;47857;52.270;6.804;2022-07-03T06:33:31;6.85;;;1.80;;
61903;SDS011;47857;52.270;6.804;2022-07-03T06:35:57;4.55;;;1.88;;
61903;SDS011;47857;52.270;6.804;2022-07-03T06:38:22;5.38;;;1.70;;
61903;SDS011;47857;52.270;6.804;2022-07-03T06:40:48;4.05;;;2.00;;
61903;SDS011;47857;52.270;6.804;2022-07-03T06:43:13;5.93;;;1.92;;
61903;SDS011;47857;52.270;6.804;2022-07-03T06:45:39;4.63;;;1.80;;
61903;SDS011;47857;52.270;6.804;2022-07-03T06:48:04;6.45;;;1.67;;
61903;SDS011;47857;52.270;6.804;2022-07-03T06:50:30;5.85;;;1.98;;
61903;SDS011;47857;52.270;6.804;2022-07-03T06:52:55;4.28;;;1.80;;
61903;SDS011;47857;52.270;6.804;2022-07-03T06:55:21;5.47;;;1.80;;
61903;SDS011;47857;52.270;6.804;2022-07-03T06:57:46;3.65;;;1.60;;
61903;SDS011;47857;52.270;6.804;2022-07-03T07:00:12;3.90;;;1.50;;
61903;SDS011;47857;52.270;6.804;2022-07-03T07:02:37;4.50;;;1.65;;
61903;SDS011;47857;52.270;6.804;2022-07-03T07:05:03;4.28;;;1.70;;
61903;SDS011;47857;52.270;6.804;2022-07-03T07:07:29;6.15;;;1.73;;
61903;SDS011;47857;52.270;6.804;2022-07-03T07:09:54;4.60;;;1.90;;
61903;SDS011;47857;52.270;6.804;2022-07-03T07:12:20;3.58;;;1.60;;
61903;SDS011;47857;52.270;6.804;2022-07-03T07:14:45;5.15;;;1.80;;
61903;SDS011;47857;52.270;6.804;2022-07-03T07:17:11;2.88;;;1.65;;
61903;SDS011;47857;52.270;6.804;2022-07-03T07:19:36;5.78;;;1.73;;
61903;SDS011;47857;52.270;6.804;2022-07-03T07:22:02;4.45;;;1.52;;
61903;SDS011;47857;52.270;6.804;2022-07-03T07:24:28;5.40;;;2.00;;
61903;SDS011;47857;52.270;6.804;2022-07-03T07:26:54;3.22;;;1.50;;
61903;SDS011;47857;52.270;6.804;2022-07-03T07:29:19;3.47;;;1.60;;
61903;SDS011;47857;52.270;6.804;2022-07-03T07:31:45;4.80;;;1.50;;
61903;SDS011;47857;52.270;6.804;2022-07-03T07:34:11;5.25;;;2.28;;
61903;SDS011;47857;52.270;6.804;2022-07-03T07:36:36;3.67;;;2.05;;
61903;SDS011;47857;52.270;6.804;2022-07-03T07:39:02;4.15;;;1.63;;
61903;SDS011;47857;52.270;6.804;2022-07-03T07:41:28;3.65;;;1.63;;
61903;SDS011;47857;52.270;6.804;2022-07-03T07:43:54;6.10;;;1.60;;
61903;SDS011;47857;52.270;6.804;2022-07-03T07:46:19;2.55;;;1.30;;
61903;SDS011;47857;52.270;6.804;2022-07-03T07:48:45;2.88;;;1.73;;
61903;SDS011;47857;52.270;6.804;2022-07-03T07:51:10;4.50;;;2.08;;
61903;SDS011;47857;52.270;6.804;2022-07-03T07:53:36;4.97;;;1.70;;
61903;SDS011;47857;52.270;6.804;2022-07-03T07:56:02;5.22;;;2.20;;
61903;SDS011;47857;52.270;6.804;2022-07-03T07:58:30;5.10;;;1.85;;
61903;SDS011;47857;52.270;6.804;2022-07-03T08:00:56;3.78;;;2.00;;
61903;SDS011;47857;52.270;6.804;2022-07-03T08:03:40;6.72;;;2.00;;
61903;SDS011;47857;52.270;6.804;2022-07-03T08:06:24;4.35;;;1.92;;
61903;SDS011;47857;52.270;6.804;2022-07-03T08:08:49;3.63;;;2.00;;
61903;SDS011;47857;52.270;6.804;2022-07-03T08:11:15;4.47;;;1.92;;
61903;SDS011;47857;52.270;6.804;2022-07-03T08:13:40;9.82;;;2.50;;
61903;SDS011;47857;52.270;6.804;2022-07-03T08:16:06;6.70;;;2.25;;
61903;SDS011;47857;52.270;6.804;2022-07-03T08:18:32;8.82;;;2.67;;
61903;SDS011;47857;52.270;6.804;2022-07-03T08:20:57;5.38;;;2.60;;
61903;SDS011;47857;52.270;6.804;2022-07-03T08:23:23;8.40;;;2.60;;
61903;SDS011;47857;52.270;6.804;2022-07-03T08:25:48;4.50;;;2.90;;
61903;SDS011;47857;52.270;6.804;2022-07-03T08:28:14;5.13;;;2.80;;
61903;SDS011;47857;52.270;6.804;2022-07-03T08:30:39;8.45;;;3.08;;
61903;SDS011;47857;52.270;6.804;2022-07-03T08:33:04;6.57;;;3.03;;
61903;SDS011;47857;52.270;6.804;2022-07-03T08:35:30;5.22;;;2.60;;
61903;SDS011;47857;52.270;6.804;2022-07-03T08:37:56;4.35;;;2.30;;
61903;SDS011;47857;52.270;6.804;2022-07-03T08:40:21;5.10;;;2.70;;
61903;SDS011;47857;52.270;6.804;2022-07-03T08:42:48;3.45;;;2.10;;
61903;SDS011;47857;52.270;6.804;2022-07-03T08:45:15;5.50;;;1.90;;
61903;SDS011;47857;52.270;6.804;2022-07-03T08:47:42;5.50;;;2.05;;
61903;SDS011;47857;52.270;6.804;2022-07-03T08:50:09;6.57;;;2.55;;
61903;SDS011;47857;52.270;6.804;2022-07-03T08:52:36;10.40;;;2.30;;
61903;SDS011;47857;52.270;6.804;2022-07-03T08:55:02;3.97;;;2.15;;
61903;SDS011;47857;52.270;6.804;2022-07-03T08:57:30;3.33;;;2.20;;
61903;SDS011;47857;52.270;6.804;2022-07-03T09:00:00;7.25;;;2.58;;
61903;SDS011;47857;52.270;6.804;2022-07-03T09:02:29;4.95;;;2.67;;
61903;SDS011;47857;52.270;6.804;2022-07-03T09:04:55;7.90;;;2.58;;
61903;SDS011;47857;52.270;6.804;2022-07-03T09:07:22;4.80;;;2.60;;
61903;SDS011;47857;52.270;6.804;2022-07-03T09:09:49;22.38;;;13.77;;
61903;SDS011;47857;52.270;6.804;2022-07-03T09:12:15;8.65;;;3.00;;
61903;SDS011;47857;52.270;6.804;2022-07-03T09:14:41;7.63;;;2.83;;
61903;SDS011;47857;52.270;6.804;2022-07-03T09:17:06;6.32;;;2.60;;
61903;SDS011;47857;52.270;6.804;2022-07-03T09:19:46;4.95;;;2.95;;
61903;SDS011;47857;52.270;6.804;2022-07-03T09:22:20;5.93;;;2.80;;
61903;SDS011;47857;52.270;6.804;2022-07-03T09:24:47;6.93;;;2.70;;
61903;SDS011;47857;52.270;6.804;2022-07-03T09:27:16;5.63;;;2.72;;
61903;SDS011;47857;52.270;6.804;2022-07-03T09:30:02;5.43;;;2.50;;
61903;SDS011;47857;52.270;6.804;2022-07-03T09:37:51;5.57;;;2.40;;
61903;SDS011;47857;52.270;6.804;2022-07-03T09:40:19;5.38;;;2.08;;
61903;SDS011;47857;52.270;6.804;2022-07-03T09:42:56;3.40;;;2.17;;
61903;SDS011;47857;52.270;6.804;2022-07-03T09:45:25;5.90;;;2.70;;
61903;SDS011;47857;52.270;6.804;2022-07-03T09:47:51;5.90;;;2.30;;
61903;SDS011;47857;52.270;6.804;2022-07-03T09:50:17;3.03;;;2.10;;
61903;SDS011;47857;52.270;6.804;2022-07-03T09:52:43;4.95;;;2.00;;
61903;SDS011;47857;52.270;6.804;2022-07-03T09:57:35;3.17;;;1.90;;
61903;SDS011;47857;52.270;6.804;2022-07-03T10:05:25;3.80;;;1.95;;
61903;SDS011;47857;52.270;6.804;2022-07-03T10:08:03;5.78;;;2.45;;
61903;SDS011;47857;52.270;6.804;2022-07-03T10:10:40;8.25;;;2.60;;
61903;SDS011;47857;52.270;6.804;2022-07-03T10:13:07;7.78;;;2.60;;
61903;SDS011;47857;52.270;6.804;2022-07-03T10:15:33;5.75;;;2.20;;
61903;SDS011;47857;52.270;6.804;2022-07-03T10:18:07;2.85;;;1.70;;
61903;SDS011;47857;52.270;6.804;2022-07-03T10:20:34;5.90;;;2.05;;
61903;SDS011;47857;52.270;6.804;2022-07-03T10:23:02;8.25;;;1.80;;
61903;SDS011;47857;52.270;6.804;2022-07-03T10:25:27;6.25;;;2.10;;
61903;SDS011;47857;52.270;6.804;2022-07-03T10:27:55;3.10;;;1.52;;
61903;SDS011;47857;52.270;6.804;2022-07-03T10:30:21;4.55;;;1.98;;
61903;SDS011;47857;52.270;6.804;2022-07-03T10:32:48;4.93;;;1.75;;
61903;SDS011;47857;52.270;6.804;2022-07-03T10:35:15;6.38;;;3.13;;
61903;SDS011;47857;52.270;6.804;2022-07-03T10:38:01;9.65;;;2.70;;
61903;SDS011;47857;52.270;6.804;2022-07-03T10:46:17;10.38;;;2.38;;
61903;SDS011;47857;52.270;6.804;2022-07-03T10:49:00;12.45;;;2.83;;
61903;SDS011;47857;52.270;6.804;2022-07-03T10:51:26;7.35;;;2.40;;
61903;SDS011;47857;52.270;6.804;2022-07-03T11:12:56;4.82;;;1.48;;
61903;SDS011;47857;52.270;6.804;2022-07-03T11:20:30;4.10;;;1.65;;
61903;SDS011;47857;52.270;6.804;2022-07-03T11:26:29;3.53;;;1.63;;
61903;SDS011;47857;52.270;6.804;2022-07-03T11:41:22;2.22;;;0.90;;
61903;SDS011;47857;52.270;6.804;2022-07-03T11:43:51;2.05;;;0.90;;
61903;SDS011;47857;52.270;6.804;2022-07-03T11:46:18;3.13;;;0.90;;
61903;SDS011;47857;52.270;6.804;2022-07-03T11:48:44;2.60;;;1.10;;
61903;SDS011;47857;52.270;6.804;2022-07-03T11:51:10;4.93;;;1.15;;
61903;SDS011;47857;52.270;6.804;2022-07-03T11:53:36;3.45;;;1.10;;
61903;SDS011;47857;52.270;6.804;2022-07-03T11:56:03;8.23;;;1.20;;
61903;SDS011;47857;52.270;6.804;2022-07-03T11:58:42;1.83;;;0.90;;
61903;SDS011;47857;52.270;6.804;2022-07-03T12:01:27;3.25;;;0.95;;
61903;SDS011;47857;52.270;6.804;2022-07-03T12:04:04;2.65;;;1.02;;
61903;SDS011;47857;52.270;6.804;2022-07-03T12:06:38;3.60;;;0.90;;
61903;SDS011;47857;52.270;6.804;2022-07-03T12:12:02;3.10;;;1.00;;
61903;SDS011;47857;52.270;6.804;2022-07-03T12:14:34;2.40;;;0.90;;
61903;SDS011;47857;52.270;6.804;2022-07-03T12:17:00;1.88;;;0.80;;
61903;SDS011;47857;52.270;6.804;2022-07-03T12:19:25;3.83;;;0.80;;
61903;SDS011;47857;52.270;6.804;2022-07-03T12:21:51;3.13;;;0.90;;
61903;SDS011;47857;52.270;6.804;2022-07-03T12:24:16;3.35;;;0.90;;
61903;SDS011;47857;52.270;6.804;2022-07-03T12:26:42;4.03;;;0.90;;
61903;SDS011;47857;52.270;6.804;2022-07-03T12:29:12;2.58;;;0.90;;
61903;SDS011;47857;52.270;6.804;2022-07-03T12:31:39;4.07;;;1.08;;
61903;SDS011;47857;52.270;6.804;2022-07-03T12:34:06;2.00;;;0.75;;
61903;SDS011;47857;52.270;6.804;2022-07-03T12:36:32;1.05;;;0.75;;
61903;SDS011;47857;52.270;6.804;2022-07-03T12:38:58;3.00;;;0.73;;
61903;SDS011;47857;52.270;6.804;2022-07-03T12:41:25;2.05;;;0.65;;
61903;SDS011;47857;52.270;6.804;2022-07-03T12:43:51;3.08;;;1.00;;
61903;SDS011;47857;52.270;6.804;2022-07-03T12:46:22;2.05;;;0.70;;
61903;SDS011;47857;52.270;6.804;2022-07-03T12:48:48;3.92;;;0.80;;
61903;SDS011;47857;52.270;6.804;2022-07-03T12:52:00;2.58;;;0.93;;
61903;SDS011;47857;52.270;6.804;2022-07-03T12:54:14;4.40;;;0.70;;
61903;SDS011;47857;52.270;6.804;2022-07-03T12:56:41;3.65;;;0.75;;
61903;SDS011;47857;52.270;6.804;2022-07-03T12:59:23;2.78;;;0.70;;
61903;SDS011;47857;52.270;6.804;2022-07-03T13:01:59;5.35;;;0.70;;
61903;SDS011;47857;52.270;6.804;2022-07-03T13:04:35;1.63;;;0.70;;
61903;SDS011;47857;52.270;6.804;2022-07-03T13:07:02;1.60;;;0.68;;
61903;SDS011;47857;52.270;6.804;2022-07-03T13:09:31;1.25;;;0.63;;
61903;SDS011;47857;52.270;6.804;2022-07-03T13:12:00;1.45;;;0.60;;
61903;SDS011;47857;52.270;6.804;2022-07-03T13:14:26;3.38;;;0.80;;
61903;SDS011;47857;52.270;6.804;2022-07-03T13:16:53;2.63;;;0.70;;
61903;SDS011;47857;52.270;6.804;2022-07-03T13:19:20;2.92;;;0.50;;
61903;SDS011;47857;52.270;6.804;2022-07-03T13:21:47;1.38;;;0.70;;
61903;SDS011;47857;52.270;6.804;2022-07-03T13:24:14;4.53;;;0.70;;
61903;SDS011;47857;52.270;6.804;2022-07-03T13:26:41;2.13;;;0.60;;
61903;SDS011;47857;52.270;6.804;2022-07-03T13:29:06;1.30;;;0.57;;
61903;SDS011;47857;52.270;6.804;2022-07-03T13:31:32;4.00;;;0.70;;
61903;SDS011;47857;52.270;6.804;2022-07-03T13:33:58;1.52;;;0.52;;
61903;SDS011;47857;52.270;6.804;2022-07-03T13:36:27;3.47;;;0.60;;
61903;SDS011;47857;52.270;6.804;2022-07-03T13:38:53;1.70;;;0.50;;
61903;SDS011;47857;52.270;6.804;2022-07-03T13:41:19;2.05;;;0.60;;
61903;SDS011;47857;52.270;6.804;2022-07-03T13:43:46;4.80;;;0.60;;
61903;SDS011;47857;52.270;6.804;2022-07-03T13:46:12;2.95;;;0.70;;
61903;SDS011;47857;52.270;6.804;2022-07-03T13:48:39;1.40;;;0.50;;
61903;SDS011;47857;52.270;6.804;2022-07-03T13:51:05;3.20;;;0.70;;
61903;SDS011;47857;52.270;6.804;2022-07-03T13:53:30;1.92;;;0.75;;
61903;SDS011;47857;52.270;6.804;2022-07-03T13:55:56;1.20;;;0.65;;
61903;SDS011;47857;52.270;6.804;2022-07-03T13:58:23;3.65;;;0.70;;
61903;SDS011;47857;52.270;6.804;2022-07-03T14:00:49;2.25;;;0.70;;
61903;SDS011;47857;52.270;6.804;2022-07-03T14:03:15;2.97;;;0.68;;
61903;SDS011;47857;52.270;6.804;2022-07-03T14:05:40;3.30;;;1.67;;
61903;SDS011;47857;52.270;6.804;2022-07-03T14:08:05;1.80;;;0.68;;
61903;SDS011;47857;52.270;6.804;2022-07-03T14:10:31;1.83;;;0.60;;
61903;SDS011;47857;52.270;6.804;2022-07-03T14:12:56;2.80;;;1.00;;
61903;SDS011;47857;52.270;6.804;2022-07-03T14:15:22;1.50;;;0.80;;
61903;SDS011;47857;52.270;6.804;2022-07-03T14:17:47;3.58;;;1.10;;
61903;SDS011;47857;52.270;6.804;2022-07-03T14:20:13;2.03;;;0.93;;
61903;SDS011;47857;52.270;6.804;2022-07-03T14:22:39;2.45;;;0.90;;
61903;SDS011;47857;52.270;6.804;2022-07-03T14:25:06;2.33;;;0.80;;
61903;SDS011;47857;52.270;6.804;2022-07-03T14:27:32;4.28;;;1.17;;
61903;SDS011;47857;52.270;6.804;2022-07-03T14:30:16;4.88;;;1.20;;
61903;SDS011;47857;52.270;6.804;2022-07-03T14:33:00;1.77;;;1.10;;
61903;SDS011;47857;52.270;6.804;2022-07-03T14:35:26;2.00;;;1.00;;
61903;SDS011;47857;52.270;6.804;2022-07-03T14:37:51;1.10;;;0.90;;
61903;SDS011;47857;52.270;6.804;2022-07-03T14:40:17;3.47;;;1.00;;
61903;SDS011;47857;52.270;6.804;2022-07-03T14:42:43;2.40;;;0.90;;
61903;SDS011;47857;52.270;6.804;2022-07-03T14:45:09;2.00;;;1.00;;
61903;SDS011;47857;52.270;6.804;2022-07-03T14:47:34;3.28;;;1.20;;
61903;SDS011;47857;52.270;6.804;2022-07-03T14:50:00;2.03;;;0.90;;
61903;SDS011;47857;52.270;6.804;2022-07-03T14:52:26;2.03;;;1.20;;
61903;SDS011;47857;52.270;6.804;2022-07-03T14:54:51;4.35;;;1.10;;
61903;SDS011;47857;52.270;6.804;2022-07-03T15:05:10;2.60;;;1.00;;
61903;SDS011;47857;52.270;6.804;2022-07-03T15:07:41;1.65;;;0.93;;
61903;SDS011;47857;52.270;6.804;2022-07-03T15:10:09;3.13;;;1.00;;
61903;SDS011;47857;52.270;6.804;2022-07-03T15:12:37;1.30;;;0.85;;
61903;SDS011;47857;52.270;6.804;2022-07-03T15:15:10;2.75;;;1.20;;
61903;SDS011;47857;52.270;6.804;2022-07-03T15:17:37;3.65;;;1.20;;
61903;SDS011;47857;52.270;6.804;2022-07-03T15:20:03;3.95;;;1.30;;
61903;SDS011;47857;52.270;6.804;2022-07-03T15:22:29;2.83;;;1.38;;
61903;SDS011;47857;52.270;6.804;2022-07-03T15:24:57;4.15;;;1.27;;
61903;SDS011;47857;52.270;6.804;2022-07-03T15:27:23;2.47;;;1.40;;
61903;SDS011;47857;52.270;6.804;2022-07-03T15:29:49;3.13;;;1.40;;
61903;SDS011;47857;52.270;6.804;2022-07-03T15:32:16;5.13;;;1.30;;
61903;SDS011;47857;52.270;6.804;2022-07-03T15:34:44;4.60;;;1.48;;
61903;SDS011;47857;52.270;6.804;2022-07-03T15:37:33;4.88;;;1.60;;
61903;SDS011;47857;52.270;6.804;2022-07-03T15:40:09;4.90;;;1.60;;
61903;SDS011;47857;52.270;6.804;2022-07-03T15:43:02;2.33;;;1.27;;
61903;SDS011;47857;52.270;6.804;2022-07-03T15:50:43;3.47;;;1.23;;
61903;SDS011;47857;52.270;6.804;2022-07-03T15:53:14;2.85;;;1.33;;
61903;SDS011;47857;52.270;6.804;2022-07-03T15:55:42;3.50;;;1.40;;
61903;SDS011;47857;52.270;6.804;2022-07-03T15:58:08;2.22;;;1.20;;
61903;SDS011;47857;52.270;6.804;2022-07-03T16:00:37;3.78;;;1.23;;
61903;SDS011;47857;52.270;6.804;2022-07-03T16:05:48;3.17;;;1.50;;
61903;SDS011;47857;52.270;6.804;2022-07-03T16:08:14;4.03;;;1.40;;
61903;SDS011;47857;52.270;6.804;2022-07-03T16:10:40;2.90;;;1.25;;
61903;SDS011;47857;52.270;6.804;2022-07-03T16:13:06;3.47;;;1.40;;
61903;SDS011;47857;52.270;6.804;2022-07-03T16:15:38;2.65;;;1.50;;
61903;SDS011;47857;52.270;6.804;2022-07-03T16:18:06;2.38;;;1.30;;
61903;SDS011;47857;52.270;6.804;2022-07-03T16:20:33;2.25;;;1.40;;
61903;SDS011;47857;52.270;6.804;2022-07-03T16:23:00;4.65;;;1.58;;
61903;SDS011;47857;52.270;6.804;2022-07-03T16:25:33;2.63;;;1.40;;
61903;SDS011;47857;52.270;6.804;2022-07-03T16:28:10;2.75;;;1.35;;
61903;SDS011;47857;52.270;6.804;2022-07-03T16:30:54;2.10;;;1.30;;
61903;SDS011;47857;52.270;6.804;2022-07-03T16:33:21;3.95;;;1.63;;
61903;SDS011;47857;52.270;6.804;2022-07-03T16:35:50;2.58;;;1.52;;
61903;SDS011;47857;52.270;6.804;2022-07-03T16:38:19;3.95;;;1.63;;
61903;SDS011;47857;52.270;6.804;2022-07-03T16:40:59;5.18;;;1.63;;
61903;SDS011;47857;52.270;6.804;2022-07-03T16:43:27;2.72;;;1.60;;
61903;SDS011;47857;52.270;6.804;2022-07-03T16:45:56;3.72;;;1.80;;
61903;SDS011;47857;52.270;6.804;2022-07-03T16:48:22;4.32;;;1.75;;
61903;SDS011;47857;52.270;6.804;2022-07-03T16:50:49;4.00;;;1.50;;
61903;SDS011;47857;52.270;6.804;2022-07-03T16:53:17;3.30;;;1.40;;